createdAt,value
2022-08-05T00:00:22.640Z,21.63
2022-08-05T00:02:51.106Z,21.53
2022-08-05T00:06:01.821Z,21.54
2022-08-05T00:08:34.169Z,21.77
2022-08-05T00:11:01.751Z,22.02
2022-08-05T00:13:38.864Z,22.23
2022-08-05T00:16:12.548Z,22.47
2022-08-05T00:18:48.716Z,22.48
2022-08-05T00:21:17.316Z,22.67
2022-08-05T00:23:53.547Z,22.78
2022-08-05T00:26:32.409Z,22.86
2022-08-05T00:28:59.472Z,22.78
2022-08-05T00:31:53.737Z,22.60
2022-08-05T00:34:56.407Z,22.45
2022-08-05T00:37:13.233Z,22.24
2022-08-05T00:39:57.858Z,21.92
2022-08-05T00:42:34.311Z,21.85
2022-08-05T00:45:02.254Z,21.82
2022-08-05T00:47:56.706Z,21.80
2022-08-05T00:50:18.782Z,21.67
2022-08-05T00:52:48.405Z,21.44
2022-08-05T00:55:15.332Z,21.17
2022-08-05T00:57:58.045Z,21.00
2022-08-05T01:00:30.027Z,20.89
2022-08-05T01:02:59.810Z,20.79
2022-08-05T01:05:27.900Z,20.70
2022-08-05T01:08:40.620Z,20.69
2022-08-05T01:10:55.627Z,20.69
2022-08-05T01:13:57.885Z,20.72
2022-08-05T01:16:33.171Z,20.68
2022-08-05T01:19:14.155Z,20.67
2022-08-05T01:22:15.545Z,20.83
2022-08-05T01:25:07.580Z,20.78
2022-08-05T01:28:11.704Z,20.57
2022-08-05T01:30:46.577Z,20.42
2022-08-05T01:33:25.193Z,20.63
2022-08-05T01:35:57.585Z,20.57
2022-08-05T01:38:29.340Z,20.54
2022-08-05T01:41:02.224Z,20.67
2022-08-05T01:43:31.770Z,20.67
2022-08-05T01:46:07.467Z,20.61
2022-08-05T01:48:49.725Z,20.50
2022-08-05T01:51:18.650Z,20.56
2022-08-05T01:53:57.606Z,20.69
2022-08-05T01:58:12.869Z,20.90
2022-08-05T01:59:23.741Z,21.14
2022-08-05T02:01:54.762Z,21.32
2022-08-05T02:04:26.354Z,21.36
2022-08-05T02:06:53.960Z,21.47
2022-08-05T02:09:21.105Z,21.31
2022-08-05T02:11:52.460Z,21.06
2022-08-05T02:14:31.909Z,20.79
2022-08-05T02:18:28.725Z,20.73
2022-08-05T02:20:20.511Z,20.85
2022-08-05T02:22:56.422Z,21.01
2022-08-05T02:25:33.129Z,21.03
2022-08-05T02:28:02.539Z,21.15
2022-08-05T02:30:54.133Z,21.38
2022-08-05T02:33:24.629Z,21.27
2022-08-05T02:36:05.391Z,20.71
2022-08-05T02:38:35.464Z,20.47
2022-08-05T02:41:06.278Z,20.22
2022-08-05T02:43:34.551Z,20.28
2022-08-05T02:46:27.510Z,20.64
2022-08-05T02:48:56.376Z,20.72
2022-08-05T02:51:28.494Z,20.25
2022-08-05T02:54:36.223Z,20.16
2022-08-05T02:57:02.056Z,20.34
2022-08-05T02:59:31.037Z,20.60
2022-08-05T03:02:17.674Z,20.86
2022-08-05T03:04:46.714Z,20.91
2022-08-05T03:07:48.438Z,20.53
2022-08-05T03:10:09.731Z,20.05
2022-08-05T03:12:40.085Z,19.76
2022-08-05T03:15:12.478Z,19.69
2022-08-05T03:17:41.491Z,19.69
2022-08-05T03:20:10.090Z,19.63
2022-08-05T03:22:37.404Z,19.57
2022-08-05T03:25:32.932Z,19.55
2022-08-05T03:28:02.358Z,19.42
2022-08-05T03:30:34.031Z,19.24
2022-08-05T03:33:06.103Z,19.44
2022-08-05T03:35:40.407Z,19.50
2022-08-05T03:38:11.996Z,19.57
2022-08-05T03:40:45.405Z,19.80
2022-08-05T03:44:09.334Z,20.43
2022-08-05T03:46:09.258Z,20.77
2022-08-05T03:48:37.654Z,21.26
2022-08-05T03:52:37.525Z,21.47
2022-08-05T03:56:04.837Z,21.77
2022-08-05T03:57:29.047Z,22.11
2022-08-05T04:00:30.956Z,22.02
2022-08-05T04:03:09.220Z,22.08
2022-08-05T04:05:55.361Z,21.78
2022-08-05T04:08:34.982Z,22.10
2022-08-05T04:11:08.674Z,22.48
2022-08-05T04:13:49.727Z,22.65
2022-08-05T04:16:24.258Z,23.05
2022-08-05T04:18:57.988Z,22.94
2022-08-05T04:22:09.577Z,22.24
2022-08-05T04:24:19.088Z,22.05
2022-08-05T04:26:55.639Z,22.06
2022-08-05T04:29:38.484Z,21.99
2022-08-05T04:32:20.152Z,22.77
2022-08-05T04:35:20.173Z,22.60
2022-08-05T04:38:07.492Z,22.10
2022-08-05T04:40:39.366Z,22.64
2022-08-05T04:43:22.028Z,23.23
2022-08-05T04:45:54.756Z,23.56
2022-08-05T04:48:28.171Z,24.04
2022-08-05T04:51:03.021Z,24.15
2022-08-05T04:53:38.822Z,24.00
2022-08-05T04:56:33.693Z,23.82
2022-08-05T04:58:56.151Z,24.17
2022-08-05T05:02:05.792Z,24.25
2022-08-05T05:04:10.662Z,24.55
2022-08-05T05:06:44.668Z,24.49
2022-08-05T05:09:17.684Z,24.62
2022-08-05T05:11:53.939Z,24.89
2022-08-05T05:14:27.733Z,25.03
2022-08-05T05:17:03.337Z,25.07
2022-08-05T05:19:36.934Z,24.89
2022-08-05T05:22:22.978Z,24.87
2022-08-05T05:24:57.927Z,24.85
2022-08-05T05:27:44.137Z,25.06
2022-08-05T05:30:29.077Z,24.89
2022-08-05T05:33:03.427Z,25.12
2022-08-05T05:35:39.758Z,24.65
2022-08-05T05:38:12.713Z,25.28
2022-08-05T05:40:49.707Z,25.35
2022-08-05T05:43:54.530Z,25.14
2022-08-05T05:46:16.326Z,25.39
2022-08-05T05:48:47.940Z,25.55
2022-08-05T05:51:20.454Z,25.62
2022-08-05T05:53:57.446Z,25.70
2022-08-05T05:56:33.306Z,25.75
2022-08-05T05:59:08.296Z,25.79
2022-08-05T06:01:39.583Z,25.66
2022-08-05T06:04:12.759Z,25.99
2022-08-05T06:06:47.470Z,26.03
2022-08-05T06:09:24.798Z,26.17
2022-08-05T06:11:59.101Z,26.44
2022-08-05T06:14:30.407Z,26.61
2022-08-05T06:16:58.481Z,26.76
2022-08-05T06:19:34.586Z,27.16
2022-08-05T06:22:06.270Z,27.55
2022-08-05T06:24:48.336Z,27.76
2022-08-05T06:28:08.962Z,28.09
2022-08-05T06:30:16.858Z,28.07
2022-08-05T06:32:47.430Z,28.01
2022-08-05T06:35:15.486Z,28.08
2022-08-05T06:37:57.779Z,28.48
2022-08-05T06:40:28.026Z,28.45
2022-08-05T06:42:59.704Z,28.62
2022-08-05T06:45:45.008Z,28.77
2022-08-05T06:48:52.601Z,29.20
2022-08-05T06:51:23.820Z,29.30
2022-08-05T06:54:01.780Z,29.39
2022-08-05T06:56:33.402Z,29.67
2022-08-05T06:59:09.503Z,29.77
2022-08-05T07:01:40.688Z,30.06
2022-08-05T07:04:09.901Z,29.76
2022-08-05T07:06:37.019Z,29.80
2022-08-05T07:09:05.551Z,29.95
2022-08-05T07:11:37.412Z,29.94
2022-08-05T07:14:29.910Z,29.74
2022-08-05T07:17:58.679Z,29.91
2022-08-05T07:20:31.444Z,30.18
2022-08-05T07:22:43.106Z,30.19
2022-08-05T07:25:53.919Z,30.54
2022-08-05T07:28:05.977Z,30.85
2022-08-05T07:30:39.410Z,30.84
2022-08-05T07:33:36.464Z,30.81
2022-08-05T07:36:21.294Z,30.58
2022-08-05T07:38:49.151Z,30.72
2022-08-05T07:42:08.518Z,30.53
2022-08-05T07:44:14.205Z,29.98
2022-08-05T07:46:48.598Z,29.77
2022-08-05T07:49:18.628Z,29.55
2022-08-05T07:51:52.944Z,29.11
2022-08-05T07:54:30.806Z,28.84
2022-08-05T07:57:41.973Z,28.74
2022-08-05T07:59:52.454Z,28.78
2022-08-05T08:02:31.413Z,28.75
2022-08-05T08:05:16.072Z,28.90
2022-08-05T08:08:00.129Z,29.24
2022-08-05T08:10:32.588Z,29.36
2022-08-05T08:13:02.009Z,29.51
2022-08-05T08:16:33.493Z,29.25
2022-08-05T08:18:21.006Z,29.46
2022-08-05T08:21:02.098Z,29.55
2022-08-05T08:24:03.904Z,29.72
2022-08-05T08:26:26.800Z,30.03
2022-08-05T08:29:21.894Z,29.95
2022-08-05T08:31:48.332Z,29.94
2022-08-05T08:34:18.632Z,30.23
2022-08-05T08:36:52.352Z,30.00
2022-08-05T08:39:24.905Z,30.13
2022-08-05T08:41:59.964Z,30.32
2022-08-05T08:45:22.264Z,29.95
2022-08-05T08:48:05.677Z,29.81
2022-08-05T08:50:29.821Z,30.19
2022-08-05T08:53:12.036Z,30.43
2022-08-05T08:56:05.297Z,30.45
2022-08-05T08:58:37.444Z,30.39
2022-08-05T09:01:15.997Z,30.55
2022-08-05T09:03:52.913Z,31.09
2022-08-05T09:06:28.255Z,30.76
2022-08-05T09:09:02.122Z,30.58
2022-08-05T09:11:52.076Z,30.42
2022-08-05T09:14:56.346Z,30.27
2022-08-05T09:17:39.937Z,30.53
2022-08-05T09:20:01.712Z,30.45
2022-08-05T09:23:05.481Z,30.23
2022-08-05T09:26:02.659Z,30.38
2022-08-05T09:28:32.066Z,30.84
2022-08-05T09:31:22.092Z,30.37
2022-08-05T09:33:58.784Z,30.16
2022-08-05T09:36:54.609Z,30.35
2022-08-05T09:39:39.290Z,30.51
2022-08-05T09:42:28.146Z,30.79
2022-08-05T09:45:03.393Z,30.32
2022-08-05T09:47:55.556Z,30.51
2022-08-05T09:50:44.856Z,30.13
2022-08-05T09:53:23.133Z,30.52
2022-08-05T09:56:04.532Z,30.54
2022-08-05T09:58:41.747Z,30.87
2022-08-05T10:01:14.895Z,30.98
2022-08-05T10:04:00.391Z,31.17
2022-08-05T10:06:28.354Z,31.35
2022-08-05T10:08:56.869Z,31.32
2022-08-05T10:11:24.058Z,31.13
2022-08-05T10:13:58.307Z,31.31
2022-08-05T10:16:41.572Z,31.16
2022-08-05T10:19:23.821Z,31.31
2022-08-05T10:22:09.071Z,31.27
2022-08-05T10:24:42.594Z,31.11
2022-08-05T10:27:16.691Z,30.76
2022-08-05T10:30:06.839Z,30.82
2022-08-05T10:32:53.606Z,30.76
2022-08-05T10:35:19.864Z,31.25
2022-08-05T10:37:48.947Z,31.27
2022-08-05T10:40:30.497Z,31.53
2022-08-05T10:43:42.314Z,31.23
2022-08-05T10:46:12.158Z,31.36
2022-08-05T10:48:57.105Z,31.22
2022-08-05T10:51:28.899Z,31.46
2022-08-05T10:54:05.791Z,31.43
2022-08-05T10:56:57.743Z,31.62
2022-08-05T11:00:01.851Z,31.21
2022-08-05T11:02:34.660Z,31.12
2022-08-05T11:05:10.202Z,30.81
2022-08-05T11:08:01.709Z,31.04
2022-08-05T11:10:38.188Z,31.07
2022-08-05T11:13:57.618Z,31.60
2022-08-05T11:16:33.729Z,31.66
2022-08-05T11:20:10.111Z,31.49
2022-08-05T11:22:42.302Z,31.91
2022-08-05T11:26:05.554Z,31.83
2022-08-05T11:28:18.213Z,31.81
2022-08-05T11:30:58.543Z,32.19
2022-08-05T11:33:34.717Z,32.59
2022-08-05T11:36:16.532Z,32.42
2022-08-05T11:39:01.974Z,32.23
2022-08-05T11:41:54.778Z,32.29
2022-08-05T11:44:40.159Z,32.37
2022-08-05T11:47:10.908Z,32.14
2022-08-05T11:49:42.774Z,32.05
2022-08-05T11:52:11.925Z,31.63
2022-08-05T11:54:41.410Z,31.78
2022-08-05T11:57:25.406Z,31.72
2022-08-05T11:59:54.648Z,32.02
2022-08-05T12:02:31.854Z,32.07
2022-08-05T12:05:07.236Z,31.97
2022-08-05T12:08:07.374Z,31.97
2022-08-05T12:10:43.651Z,32.14
2022-08-05T12:30:10.583Z,32.55
2022-08-05T12:32:50.355Z,32.28
2022-08-05T12:35:21.600Z,32.55
2022-08-05T12:37:49.425Z,32.77
2022-08-05T12:40:26.863Z,33.07
2022-08-05T12:46:40.678Z,32.56
2022-08-05T12:49:15.037Z,32.46
2022-08-05T12:52:12.081Z,31.93
2022-08-05T12:54:35.717Z,31.37
2022-08-05T12:57:09.670Z,31.33
2022-08-05T13:01:57.369Z,31.25
2022-08-05T13:02:41.679Z,31.04
2022-08-05T13:05:11.180Z,30.79
2022-08-05T13:08:00.449Z,30.90
2022-08-05T13:10:32.851Z,31.06
2022-08-05T13:12:59.764Z,31.29
2022-08-05T13:15:36.111Z,31.43
2022-08-05T13:18:20.214Z,31.93
2022-08-05T13:20:49.885Z,32.32
2022-08-05T13:23:18.226Z,32.34
2022-08-05T13:25:59.497Z,32.45
2022-08-05T13:28:29.167Z,32.14
2022-08-05T13:30:59.285Z,31.87
2022-08-05T13:34:24.055Z,32.24
2022-08-05T13:36:17.307Z,32.51
2022-08-05T13:38:51.906Z,31.83
2022-08-05T13:41:20.501Z,32.16
2022-08-05T13:43:54.369Z,32.13
2022-08-05T13:46:43.624Z,31.88
2022-08-05T13:49:13.682Z,31.85
2022-08-05T13:51:46.296Z,31.62
2022-08-05T13:54:16.029Z,31.46
2022-08-05T13:56:51.633Z,31.27
2022-08-05T13:59:23.725Z,31.04
2022-08-05T14:02:09.949Z,30.83
2022-08-05T14:05:11.524Z,30.88
2022-08-05T14:07:59.871Z,31.00
2022-08-05T14:10:30.742Z,31.00
2022-08-05T14:12:59.374Z,31.35
2022-08-05T14:16:08.863Z,31.62
2022-08-05T14:51:49.100Z,31.70
2022-08-05T14:54:28.967Z,31.54
2022-08-05T15:47:54.394Z,31.68
2022-08-05T15:50:25.181Z,31.82
2022-08-05T15:52:55.288Z,31.90
2022-08-05T15:55:25.050Z,31.96
2022-08-05T15:58:16.381Z,31.53
2022-08-05T16:00:51.037Z,31.47
2022-08-05T16:03:32.759Z,31.15
2022-08-05T16:06:01.441Z,31.11
2022-08-05T16:08:30.573Z,31.38
2022-08-05T16:10:58.628Z,31.45
2022-08-05T16:13:34.382Z,31.22
2022-08-05T16:16:05.913Z,31.13
2022-08-05T16:18:33.455Z,31.17
2022-08-05T16:21:04.302Z,31.14
2022-08-05T16:23:53.082Z,31.25
2022-08-05T16:26:26.299Z,31.22
2022-08-05T16:28:54.655Z,31.07
2022-08-05T16:31:22.195Z,30.87
2022-08-05T16:33:49.614Z,30.83
2022-08-05T16:36:20.158Z,30.84
2022-08-05T16:38:54.986Z,30.80
2022-08-05T16:42:12.221Z,30.89
2022-08-05T16:44:11.710Z,30.92
2022-08-05T16:46:41.197Z,30.97
2022-08-05T16:49:22.642Z,31.14
2022-08-05T16:51:51.328Z,31.16
2022-08-05T16:54:27.520Z,31.23
2022-08-05T16:57:00.435Z,31.26
2022-08-05T16:59:30.770Z,31.34
2022-08-05T17:01:58.168Z,31.33
2022-08-05T17:04:28.261Z,31.32
2022-08-05T17:07:01.157Z,31.31
2022-08-05T17:09:30.544Z,31.34
2022-08-05T17:12:06.476Z,31.26
2022-08-05T17:14:37.239Z,31.15
2022-08-05T17:17:14.553Z,31.09
2022-08-05T17:19:45.510Z,31.15
2022-08-05T17:22:24.659Z,31.13
2022-08-05T17:24:57.893Z,30.93
2022-08-05T17:27:33.867Z,30.87
2022-08-05T17:30:04.684Z,30.72
2022-08-05T17:32:39.226Z,30.70
2022-08-05T17:35:10.808Z,30.77
2022-08-05T17:37:45.446Z,30.80
2022-08-05T17:40:17.429Z,30.40
2022-08-05T17:42:50.579Z,30.35
2022-08-05T17:48:39.220Z,30.46
2022-08-05T17:51:10.369Z,30.47
2022-08-05T17:53:39.720Z,30.52
2022-08-05T17:56:09.760Z,30.39
2022-08-05T17:58:39.654Z,29.90
2022-08-05T18:01:08.048Z,30.05
2022-08-05T18:03:59.199Z,30.09
2022-08-05T18:06:29.246Z,30.12
2022-08-05T18:08:56.563Z,29.76
2022-08-05T18:11:32.598Z,29.60
2022-08-05T18:14:13.367Z,29.62
2022-08-05T18:16:43.766Z,29.62
2022-08-05T18:19:22.649Z,29.73
2022-08-05T18:22:09.034Z,29.73
2022-08-05T18:24:39.516Z,29.92
2022-08-05T18:27:12.473Z,30.07
2022-08-05T18:29:48.209Z,29.97
2022-08-05T18:32:21.358Z,29.76
2022-08-05T18:34:56.091Z,29.65
2022-08-05T18:37:33.720Z,29.74
2022-08-05T18:40:33.986Z,29.71
2022-08-05T18:42:54.773Z,29.54
2022-08-05T18:45:22.018Z,29.42
2022-08-05T18:47:56.714Z,29.60
2022-08-05T18:50:46.511Z,29.31
2022-08-05T18:53:20.514Z,29.30
2022-08-05T18:55:51.639Z,29.24
2022-08-05T18:58:26.984Z,28.90
2022-08-05T19:00:56.850Z,28.68
2022-08-05T19:03:52.925Z,28.49
2022-08-05T19:06:20.041Z,28.44
2022-08-05T19:08:49.573Z,28.46
2022-08-05T19:11:37.098Z,28.60
2022-08-05T19:14:59.172Z,28.59
2022-08-05T19:17:02.893Z,28.42
2022-08-05T19:19:33.377Z,28.57
2022-08-05T19:22:01.149Z,28.80
2022-08-05T19:24:34.660Z,28.91
2022-08-05T19:27:04.107Z,28.95
2022-08-05T19:29:36.276Z,28.83
2022-08-05T19:32:08.498Z,29.00
2022-08-05T19:34:38.023Z,28.90
2022-08-05T19:37:05.465Z,28.74
2022-08-05T19:39:32.410Z,28.74
2022-08-05T19:42:15.133Z,28.76
2022-08-05T19:44:45.267Z,28.42
2022-08-05T19:47:15.088Z,28.17
2022-08-05T19:49:45.181Z,28.20
2022-08-05T19:52:30.917Z,28.24
2022-08-05T19:55:00.564Z,28.28
2022-08-05T19:58:00.573Z,28.07
2022-08-05T20:00:21.382Z,27.81
2022-08-05T20:02:48.397Z,27.51
2022-08-05T20:05:16.613Z,27.39
2022-08-05T20:07:56.290Z,27.46
2022-08-05T20:10:25.689Z,27.50
2022-08-05T20:12:53.021Z,27.70
2022-08-05T20:15:48.485Z,27.87
2022-08-05T20:18:10.860Z,27.88
2022-08-05T20:20:57.131Z,27.94
2022-08-05T20:23:39.432Z,28.00
2022-08-05T20:26:16.475Z,27.95
2022-08-05T20:28:50.617Z,27.95
2022-08-05T20:31:21.422Z,27.93
2022-08-05T20:33:50.131Z,27.77
2022-08-05T20:36:18.283Z,27.75
2022-08-05T20:38:54.687Z,27.49
2022-08-05T20:41:43.871Z,27.36
2022-08-05T20:44:17.722Z,27.30
2022-08-05T20:46:47.793Z,27.42
2022-08-05T20:49:15.439Z,27.35
2022-08-05T20:51:53.602Z,27.17
2022-08-05T20:54:59.805Z,26.81
2022-08-05T20:57:42.145Z,26.89
2022-08-05T21:00:19.578Z,26.84
2022-08-05T21:02:52.223Z,26.76
2022-08-05T21:05:19.264Z,26.92
2022-08-05T21:07:52.132Z,26.51
2022-08-05T21:10:20.113Z,26.45
2022-08-05T21:12:58.060Z,26.31
2022-08-05T21:15:36.269Z,26.29
2022-08-05T21:18:03.420Z,26.33
2022-08-05T21:20:33.018Z,26.50
2022-08-05T21:23:01.181Z,26.49
2022-08-05T21:25:33.713Z,26.50
2022-08-05T21:28:03.403Z,26.45
2022-08-05T21:30:31.745Z,26.53
2022-08-05T21:32:59.943Z,26.59
2022-08-05T21:35:43.752Z,26.25
2022-08-05T21:38:17.080Z,26.33
2022-08-05T21:40:45.154Z,26.34
2022-08-05T21:43:17.750Z,26.44
2022-08-05T21:45:56.625Z,26.45
2022-08-05T21:48:25.031Z,26.52
2022-08-05T21:50:53.136Z,26.53
2022-08-05T21:53:21.748Z,26.49
2022-08-05T21:56:04.707Z,26.35
2022-08-05T21:58:42.267Z,26.42
2022-08-05T22:01:10.630Z,26.41
2022-08-05T22:03:52.168Z,25.98
2022-08-05T22:06:22.545Z,25.56
2022-08-05T22:08:53.210Z,25.48
2022-08-05T22:11:34.722Z,25.34
2022-08-05T22:14:06.227Z,25.04
2022-08-05T22:16:55.910Z,25.04
2022-08-05T22:19:57.431Z,25.11
2022-08-05T22:22:11.913Z,25.30
2022-08-05T22:24:57.872Z,25.47
2022-08-05T22:28:10.656Z,25.38
2022-08-05T22:30:35.950Z,25.32
2022-08-05T22:33:15.547Z,25.25
2022-08-05T22:35:49.221Z,25.12
2022-08-05T22:38:19.004Z,25.28
2022-08-05T22:40:49.540Z,25.13
2022-08-05T22:43:37.170Z,25.29
2022-08-05T22:46:13.367Z,25.29
2022-08-05T22:48:41.951Z,25.32
2022-08-05T22:51:15.858Z,25.34
2022-08-05T22:53:51.218Z,25.15
2022-08-05T22:56:30.112Z,25.16
2022-08-05T22:58:59.871Z,25.21
2022-08-05T23:02:04.881Z,25.28
2022-08-05T23:04:17.565Z,25.32
2022-08-05T23:06:44.453Z,25.30
2022-08-05T23:09:27.996Z,25.33
2022-08-05T23:11:59.774Z,25.28
2022-08-05T23:14:31.983Z,24.81
2022-08-05T23:17:24.472Z,24.55
2022-08-05T23:20:01.077Z,24.46
2022-08-05T23:22:31.130Z,24.63
2022-08-05T23:24:58.125Z,24.49
2022-08-05T23:27:28.973Z,24.26
2022-08-05T23:30:01.030Z,24.60
2022-08-05T23:32:28.332Z,24.77
2022-08-05T23:34:56.563Z,24.72
2022-08-05T23:37:23.628Z,24.84
2022-08-05T23:39:54.962Z,24.74
2022-08-05T23:42:28.992Z,24.58
2022-08-05T23:44:57.082Z,24.11
2022-08-05T23:47:24.907Z,24.00
2022-08-05T23:49:56.421Z,24.08
2022-08-05T23:52:27.597Z,23.92
2022-08-05T23:54:57.413Z,23.91
2022-08-05T23:57:28.246Z,23.81
